Time;durP1;ratioP1;P1;durP2;ratioP2;P2;SDS_P1;SDS_P2;PMS_P1;PMS_P2;Temp;Humidity;BMP_temperature;BMP_pressure;BME280_temperature;BME280_humidity;BME280_pressure;Samples;Min_cycle;Max_cycle;Signal;HPM_P1;HPM_P2
2021/01/31 00:02:21;;;;;;;21.52;7.53;;;;;;;;;;5054015;28;20021;-35
2021/01/31 00:04:48;;;;;;;19.48;6.57;;;;;;;;;;5054477;28;20017;-36
2021/01/31 00:07:18;;;;;;;11.88;4.90;;;;;;;;;;5054603;28;20039;-38
2021/01/31 00:09:45;;;;;;;14.27;5.70;;;;;;;;;;5053625;28;20029;-36
2021/01/31 00:12:13;;;;;;;17.75;5.30;;;;;;;;;;5052104;28;20028;-37
2021/01/31 00:14:40;;;;;;;17.80;4.30;;;;;;;;;;5053856;28;20025;-39
2021/01/31 00:17:07;;;;;;;15.02;3.97;;;;;;;;;;5019566;28;20025;-37
2021/01/31 00:19:34;;;;;;;8.30;3.30;;;;;;;;;;5054188;28;20036;-37
2021/01/31 00:22:02;;;;;;;15.52;3.33;;;;;;;;;;5054154;28;20091;-38
2021/01/31 00:24:29;;;;;;;14.23;3.17;;;;;;;;;;5054190;28;20013;-37
2021/01/31 00:26:56;;;;;;;8.00;3.30;;;;;;;;;;5054339;28;20029;-36
2021/01/31 00:29:23;;;;;;;14.25;5.22;;;;;;;;;;5053989;28;20526;-36
2021/01/31 00:31:50;;;;;;;16.23;5.35;;;;;;;;;;5036539;28;20060;-37
2021/01/31 00:34:18;;;;;;;23.67;12.15;;;;;;;;;;5036209;28;20032;-36
2021/01/31 00:36:46;;;;;;;21.33;7.40;;;;;;;;;;5054219;28;20032;-36
2021/01/31 00:39:13;;;;;;;32.38;11.68;;;;;;;;;;5053982;28;20047;-36
2021/01/31 00:41:40;;;;;;;23.92;9.52;;;;;;;;;;5053660;28;20025;-36
2021/01/31 00:44:08;;;;;;;38.80;16.77;;;;;;;;;;5053542;28;20377;-37
2021/01/31 00:46:37;;;;;;;28.55;11.45;;;;;;;;;;5053972;28;20060;-35
2021/01/31 00:49:04;;;;;;;27.63;11.02;;;;;;;;;;5050748;28;20461;-35
2021/01/31 00:51:32;;;;;;;24.13;10.23;;;;;;;;;;5053333;28;20029;-39
2021/01/31 00:53:59;;;;;;;26.13;10.27;;;;;;;;;;5048108;28;20029;-37
2021/01/31 00:56:26;;;;;;;27.02;9.30;;;;;;;;;;5051058;28;20500;-36
2021/01/31 00:58:53;;;;;;;58.70;29.13;;;;;;;;;;5049770;28;20036;-43
2021/01/31 01:01:21;;;;;;;38.70;14.27;;;;;;;;;;5052229;28;20420;-43
2021/01/31 01:03:48;;;;;;;35.13;13.82;;;;;;;;;;5053115;28;20036;-42
2021/01/31 01:06:16;;;;;;;26.23;10.18;;;;;;;;;;5053302;28;20025;-40
2021/01/31 01:08:43;;;;;;;31.85;14.30;;;;;;;;;;5053407;28;20040;-50
2021/01/31 01:11:10;;;;;;;37.50;12.85;;;;;;;;;;5052785;28;20013;-43
2021/01/31 01:13:37;;;;;;;42.63;15.43;;;;;;;;;;5052350;28;20091;-42
2021/01/31 01:16:04;;;;;;;36.30;16.83;;;;;;;;;;5051646;28;20542;-43
2021/01/31 01:18:32;;;;;;;38.97;18.50;;;;;;;;;;5052910;28;20021;-43
2021/01/31 01:20:59;;;;;;;28.83;11.07;;;;;;;;;;5052456;28;20040;-42
2021/01/31 01:23:26;;;;;;;29.98;10.88;;;;;;;;;;5051927;28;20489;-39
2021/01/31 01:25:53;;;;;;;35.65;15.85;;;;;;;;;;5052312;28;20079;-38
2021/01/31 01:28:20;;;;;;;33.58;14.80;;;;;;;;;;5052916;28;20082;-38
2021/01/31 01:30:48;;;;;;;32.42;13.90;;;;;;;;;;5052684;28;20032;-38
2021/01/31 01:33:15;;;;;;;26.70;11.85;;;;;;;;;;5052780;28;20017;-43
2021/01/31 01:35:42;;;;;;;33.10;9.98;;;;;;;;;;5052790;28;20538;-42
2021/01/31 01:38:09;;;;;;;25.88;9.38;;;;;;;;;;5052584;28;20041;-37
2021/01/31 01:40:38;;;;;;;23.80;9.20;;;;;;;;;;5051490;28;20032;-36
2021/01/31 01:43:05;;;;;;;28.67;8.63;;;;;;;;;;5050762;28;20035;-40
2021/01/31 01:45:33;;;;;;;22.10;8.10;;;;;;;;;;5051284;28;20067;-37
2021/01/31 01:48:11;;;;;;;19.38;7.25;;;;;;;;;;5051668;28;20106;-39
2021/01/31 01:50:40;;;;;;;20.50;7.10;;;;;;;;;;5051708;28;20029;-36
2021/01/31 01:53:08;;;;;;;23.33;7.45;;;;;;;;;;5052179;28;20039;-40
2021/01/31 01:55:38;;;;;;;21.98;8.05;;;;;;;;;;5051791;28;20122;-45
2021/01/31 01:58:08;;;;;;;22.63;6.78;;;;;;;;;;5050353;28;20013;-43
2021/01/31 02:00:35;;;;;;;18.15;6.40;;;;;;;;;;5052136;28;20500;-42
2021/01/31 02:03:12;;;;;;;19.52;6.85;;;;;;;;;;5051263;28;20040;-43
2021/01/31 02:05:39;;;;;;;14.18;6.38;;;;;;;;;;5051647;28;20477;-42
2021/01/31 02:08:07;;;;;;;18.35;7.07;;;;;;;;;;5052136;28;20037;-55
2021/01/31 02:10:34;;;;;;;17.80;7.07;;;;;;;;;;5052365;28;20369;-58
2021/01/31 02:13:02;;;;;;;22.10;6.35;;;;;;;;;;5051289;28;20039;-55
2021/01/31 02:15:30;;;;;;;14.07;6.22;;;;;;;;;;5051531;28;20032;-51
2021/01/31 02:17:59;;;;;;;16.90;7.13;;;;;;;;;;5051222;28;20037;-49
2021/01/31 02:20:26;;;;;;;11.52;5.75;;;;;;;;;;5051410;28;20462;-45
2021/01/31 02:23:21;;;;;;;16.92;7.15;;;;;;;;;;5051581;28;20049;-44
2021/01/31 02:25:48;;;;;;;19.30;6.03;;;;;;;;;;5028944;28;20103;-40
2021/01/31 02:28:33;;;;;;;17.02;5.85;;;;;;;;;;5050434;28;20499;-43
2021/01/31 02:31:10;;;;;;;14.45;5.30;;;;;;;;;;5051973;28;20025;-45
2021/01/31 02:33:41;;;;;;;17.40;5.47;;;;;;;;;;5051817;28;20032;-45
2021/01/31 02:36:18;;;;;;;21.38;5.38;;;;;;;;;;5051603;28;20381;-42
2021/01/31 02:39:00;;;;;;;18.27;5.68;;;;;;;;;;5052008;28;20048;-43
2021/01/31 02:41:30;;;;;;;19.75;6.32;;;;;;;;;;5049802;28;20116;-45
2021/01/31 02:43:58;;;;;;;22.50;5.68;;;;;;;;;;5050883;28;20033;-43
2021/01/31 02:46:26;;;;;;;22.20;5.80;;;;;;;;;;5051236;28;20028;-43
2021/01/31 02:48:58;;;;;;;20.02;5.97;;;;;;;;;;5050272;28;20029;-42
2021/01/31 02:51:27;;;;;;;21.83;5.70;;;;;;;;;;5050858;28;20074;-46
2021/01/31 02:54:06;;;;;;;13.02;5.78;;;;;;;;;;5050865;28;20128;-42
2021/01/31 02:56:56;;;;;;;18.15;6.78;;;;;;;;;;5051162;28;20484;-43
2021/01/31 02:59:45;;;;;;;26.58;7.40;;;;;;;;;;5041205;28;20037;-43
2021/01/31 03:02:20;;;;;;;16.02;5.88;;;;;;;;;;5050817;28;20120;-44
2021/01/31 03:04:54;;;;;;;19.13;6.47;;;;;;;;;;5050303;28;20025;-47
2021/01/31 03:07:24;;;;;;;19.98;6.57;;;;;;;;;;5050160;28;20055;-42
2021/01/31 03:09:58;;;;;;;25.15;8.15;;;;;;;;;;5050489;28;20025;-44
2021/01/31 03:12:30;;;;;;;53.30;9.18;;;;;;;;;;5048167;28;20013;-41
2021/01/31 03:15:03;;;;;;;28.65;7.35;;;;;;;;;;5049603;28;20029;-43
2021/01/31 03:17:38;;;;;;;22.38;5.68;;;;;;;;;;5050849;28;20079;-44
2021/01/31 03:20:18;;;;;;;17.77;5.45;;;;;;;;;;5048064;28;20513;-42
2021/01/31 03:23:05;;;;;;;21.45;5.85;;;;;;;;;;5048065;28;20021;-42
2021/01/31 03:25:44;;;;;;;15.98;3.88;;;;;;;;;;5047651;28;20048;-43
2021/01/31 03:28:11;;;;;;;12.98;4.00;;;;;;;;;;5050280;28;20095;-44
2021/01/31 03:30:39;;;;;;;21.42;4.70;;;;;;;;;;5050106;28;20473;-41
2021/01/31 03:33:26;;;;;;;19.13;4.15;;;;;;;;;;5050714;28;20033;-41
2021/01/31 03:35:55;;;;;;;21.98;4.07;;;;;;;;;;5050659;28;20115;-41
2021/01/31 03:38:23;;;;;;;21.08;4.22;;;;;;;;;;5051189;28;20032;-41
2021/01/31 03:40:54;;;;;;;14.63;3.78;;;;;;;;;;5050804;28;20025;-41
2021/01/31 03:43:23;;;;;;;13.40;3.80;;;;;;;;;;5051142;28;20025;-41
2021/01/31 03:46:00;;;;;;;15.82;3.65;;;;;;;;;;5050649;28;20036;-41
2021/01/31 03:48:30;;;;;;;16.67;4.53;;;;;;;;;;5050964;28;20118;-41
2021/01/31 03:50:58;;;;;;;15.43;3.95;;;;;;;;;;5051023;28;20029;-41
2021/01/31 03:53:26;;;;;;;13.35;3.83;;;;;;;;;;5047697;28;20029;-41
2021/01/31 03:55:55;;;;;;;15.70;3.88;;;;;;;;;;5049920;28;20024;-41
2021/01/31 03:58:25;;;;;;;17.10;3.40;;;;;;;;;;5050740;28;20100;-41
2021/01/31 04:01:01;;;;;;;12.07;3.00;;;;;;;;;;5049416;28;20049;-40
2021/01/31 04:03:32;;;;;;;12.93;3.33;;;;;;;;;;5051103;28;20025;-41
2021/01/31 04:06:05;;;;;;;13.32;2.60;;;;;;;;;;5053383;28;20025;-41
2021/01/31 04:08:33;;;;;;;14.27;2.60;;;;;;;;;;5054380;28;20033;-41
2021/01/31 04:11:01;;;;;;;10.38;2.40;;;;;;;;;;5054511;28;20358;-41
2021/01/31 04:13:31;;;;;;;14.98;2.60;;;;;;;;;;5054435;28;20523;-41
2021/01/31 04:16:01;;;;;;;15.88;2.95;;;;;;;;;;5053914;28;20021;-41
2021/01/31 04:18:29;;;;;;;11.15;2.33;;;;;;;;;;5053999;28;20100;-41
2021/01/31 04:20:57;;;;;;;10.77;2.30;;;;;;;;;;5053905;28;20049;-41
2021/01/31 04:23:25;;;;;;;10.27;2.90;;;;;;;;;;5050145;28;20017;-41
2021/01/31 04:25:52;;;;;;;9.38;2.80;;;;;;;;;;5052744;28;20013;-41
2021/01/31 04:28:24;;;;;;;14.68;2.80;;;;;;;;;;5052815;28;20036;-42
2021/01/31 04:30:55;;;;;;;11.30;2.33;;;;;;;;;;5036832;28;20021;-44
2021/01/31 04:33:22;;;;;;;9.85;2.58;;;;;;;;;;5054704;28;20039;-41
2021/01/31 04:35:49;;;;;;;11.52;2.22;;;;;;;;;;5054655;28;20035;-47
2021/01/31 04:38:17;;;;;;;13.15;2.30;;;;;;;;;;5054784;28;20043;-44
2021/01/31 04:40:44;;;;;;;11.18;1.98;;;;;;;;;;5054353;28;20028;-44
2021/01/31 04:43:14;;;;;;;12.32;2.42;;;;;;;;;;5054550;28;20092;-43
2021/01/31 04:45:41;;;;;;;9.20;2.05;;;;;;;;;;5054481;28;20033;-45
2021/01/31 04:48:11;;;;;;;9.30;2.03;;;;;;;;;;5054414;28;20112;-44
2021/01/31 04:50:41;;;;;;;7.28;1.92;;;;;;;;;;5054368;28;20048;-44
2021/01/31 04:53:27;;;;;;;10.88;2.33;;;;;;;;;;5054633;28;20440;-44
2021/01/31 04:56:09;;;;;;;8.07;2.40;;;;;;;;;;5054547;28;20465;-45
2021/01/31 04:58:38;;;;;;;6.35;2.28;;;;;;;;;;5054537;28;20025;-44
2021/01/31 05:01:17;;;;;;;6.32;1.90;;;;;;;;;;5054356;28;20032;-41
2021/01/31 05:03:50;;;;;;;9.95;2.47;;;;;;;;;;5054268;28;20029;-43
2021/01/31 05:06:18;;;;;;;5.90;1.92;;;;;;;;;;5054104;28;20485;-44
2021/01/31 05:08:49;;;;;;;7.65;1.75;;;;;;;;;;5054189;28;20029;-45
2021/01/31 05:11:23;;;;;;;9.30;2.00;;;;;;;;;;5054259;28;20477;-43
2021/01/31 05:13:56;;;;;;;7.00;2.33;;;;;;;;;;5054113;28;20468;-42
2021/01/31 05:16:23;;;;;;;7.78;1.77;;;;;;;;;;5052648;28;20480;-43
2021/01/31 05:18:53;;;;;;;6.82;2.22;;;;;;;;;;5053811;28;20032;-42
2021/01/31 05:21:21;;;;;;;6.57;1.70;;;;;;;;;;5053978;28;20083;-43
2021/01/31 05:23:52;;;;;;;8.63;1.90;;;;;;;;;;5053802;28;20100;-44
2021/01/31 05:26:19;;;;;;;9.30;1.95;;;;;;;;;;5053685;28;20064;-43
2021/01/31 05:28:48;;;;;;;5.85;1.65;;;;;;;;;;5053908;28;20029;-43
2021/01/31 05:31:16;;;;;;;8.13;1.58;;;;;;;;;;5053466;28;20060;-43
2021/01/31 05:33:51;;;;;;;5.50;1.65;;;;;;;;;;5035641;28;20413;-43
2021/01/31 05:36:18;;;;;;;3.70;1.70;;;;;;;;;;5053699;28;20091;-43
2021/01/31 05:38:46;;;;;;;9.93;1.70;;;;;;;;;;5053662;28;20017;-44
2021/01/31 05:41:22;;;;;;;5.95;1.70;;;;;;;;;;5053514;28;20032;-43
2021/01/31 05:44:00;;;;;;;8.15;1.83;;;;;;;;;;5053288;28;20017;-43
2021/01/31 05:46:35;;;;;;;6.85;1.80;;;;;;;;;;5053267;28;20092;-43
2021/01/31 05:49:02;;;;;;;6.90;1.35;;;;;;;;;;5053434;28;20040;-43
2021/01/31 05:51:32;;;;;;;7.10;1.42;;;;;;;;;;5035347;28;20028;-43
2021/01/31 05:54:17;;;;;;;5.35;1.45;;;;;;;;;;5053251;28;20025;-42
2021/01/31 05:56:46;;;;;;;6.68;1.60;;;;;;;;;;5053241;28;20017;-43
2021/01/31 05:59:14;;;;;;;5.20;1.20;;;;;;;;;;5053113;28;20473;-43
2021/01/31 06:01:55;;;;;;;6.68;1.65;;;;;;;;;;5035419;28;20120;-43
2021/01/31 06:04:23;;;;;;;3.42;1.20;;;;;;;;;;5052895;28;20070;-43
2021/01/31 06:06:51;;;;;;;6.07;1.58;;;;;;;;;;5052796;28;20090;-43
2021/01/31 06:09:36;;;;;;;5.03;1.40;;;;;;;;;;5053112;28;20032;-44
2021/01/31 06:12:26;;;;;;;3.95;1.30;;;;;;;;;;5053088;28;20031;-43
2021/01/31 06:15:10;;;;;;;6.47;1.55;;;;;;;;;;5045148;28;20036;-41
2021/01/31 06:17:37;;;;;;;6.68;1.33;;;;;;;;;;5052675;28;20104;-43
2021/01/31 06:20:11;;;;;;;7.47;1.30;;;;;;;;;;5123496;22;20599;-54
2021/01/31 06:22:42;;;;;;;5.50;1.35;;;;;;;;;;5053317;28;20036;-53
2021/01/31 06:25:29;;;;;;;4.30;1.20;;;;;;;;;;5053037;28;20408;-51
2021/01/31 06:28:16;;;;;;;5.57;1.38;;;;;;;;;;5052348;28;20045;-53
2021/01/31 06:30:47;;;;;;;6.05;1.45;;;;;;;;;;5052990;28;20494;-46
2021/01/31 06:33:14;;;;;;;6.50;1.60;;;;;;;;;;5052890;28;20104;-53
2021/01/31 06:35:41;;;;;;;5.72;1.02;;;;;;;;;;5053105;28;20036;-52
2021/01/31 06:38:26;;;;;;;6.65;1.70;;;;;;;;;;5052912;28;20025;-49
2021/01/31 06:41:12;;;;;;;8.20;1.30;;;;;;;;;;5053070;28;20471;-49
2021/01/31 06:43:54;;;;;;;4.45;1.10;;;;;;;;;;5052803;28;20090;-46
2021/01/31 06:46:33;;;;;;;3.78;0.90;;;;;;;;;;5052727;28;20033;-51
2021/01/31 06:49:12;;;;;;;11.10;1.83;;;;;;;;;;5052541;28;20028;-54
2021/01/31 06:51:48;;;;;;;5.35;1.30;;;;;;;;;;5052715;28;20021;-49
2021/01/31 06:54:24;;;;;;;4.78;1.05;;;;;;;;;;5052723;28;20052;-47
2021/01/31 06:56:54;;;;;;;6.28;1.35;;;;;;;;;;5053052;28;20369;-48
2021/01/31 06:59:47;;;;;;;4.90;1.20;;;;;;;;;;5052640;28;20045;-49
2021/01/31 07:02:13;;;;;;;;;;;;;;;;;;5053218;28;20028;-49
2021/01/31 07:04:54;;;;;;;6.07;1.50;;;;;;;;;;5052633;28;20359;-50
2021/01/31 07:07:41;;;;;;;6.45;1.00;;;;;;;;;;5052406;28;20040;-54
2021/01/31 07:10:11;;;;;;;6.30;1.20;;;;;;;;;;5048255;28;20060;-51
2021/01/31 07:12:59;;;;;;;7.20;1.40;;;;;;;;;;5052511;28;20027;-53
2021/01/31 07:15:27;;;;;;;4.70;1.33;;;;;;;;;;5041508;28;20511;-51
2021/01/31 07:18:02;;;;;;;2.40;0.80;;;;;;;;;;5052524;28;20025;-47
2021/01/31 07:20:36;;;;;;;3.45;1.02;;;;;;;;;;5051102;28;20045;-51
2021/01/31 07:23:10;;;;;;;5.32;1.02;;;;;;;;;;5052575;28;20025;-50
2021/01/31 07:25:39;;;;;;;4.72;1.10;;;;;;;;;;5052242;28;20017;-52
2021/01/31 07:28:06;;;;;;;4.70;1.10;;;;;;;;;;5052291;28;20072;-53
2021/01/31 07:30:39;;;;;;;6.45;1.10;;;;;;;;;;5052332;28;20045;-53
2021/01/31 07:33:07;;;;;;;7.40;1.20;;;;;;;;;;5052149;28;20025;-45
2021/01/31 07:35:42;;;;;;;3.97;1.10;;;;;;;;;;5052204;28;20465;-55
2021/01/31 07:38:41;;;;;;;4.68;1.08;;;;;;;;;;5052298;28;20029;-49
2021/01/31 07:41:09;;;;;;;6.32;1.00;;;;;;;;;;5022500;28;20063;-52
2021/01/31 07:43:37;;;;;;;3.10;0.80;;;;;;;;;;5056059;28;20029;-54
2021/01/31 07:46:08;;;;;;;6.15;1.13;;;;;;;;;;5056277;28;20025;-45
2021/01/31 07:48:39;;;;;;;4.90;1.25;;;;;;;;;;5055944;28;20037;-51
2021/01/31 07:51:07;;;;;;;3.83;1.10;;;;;;;;;;5055752;28;20025;-48
2021/01/31 07:53:37;;;;;;;7.18;1.40;;;;;;;;;;5055999;28;20061;-51
2021/01/31 07:56:21;;;;;;;3.97;1.42;;;;;;;;;;5055550;28;20032;-53
2021/01/31 07:58:49;;;;;;;7.03;1.50;;;;;;;;;;5055676;28;20027;-52
2021/01/31 08:01:36;;;;;;;4.80;1.15;;;;;;;;;;5055722;28;20017;-51
2021/01/31 08:04:19;;;;;;;5.03;0.80;;;;;;;;;;5055435;28;20385;-50
2021/01/31 08:06:47;;;;;;;6.72;1.20;;;;;;;;;;5055463;28;20031;-53
2021/01/31 08:09:29;;;;;;;4.63;1.05;;;;;;;;;;5055669;28;20029;-51
2021/01/31 08:12:14;;;;;;;6.47;1.02;;;;;;;;;;5055725;28;20082;-44
2021/01/31 08:15:00;;;;;;;4.25;1.10;;;;;;;;;;5055686;28;20029;-45
2021/01/31 08:17:43;;;;;;;7.10;1.27;;;;;;;;;;5055485;28;20029;-45
2021/01/31 08:20:36;;;;;;;3.58;1.10;;;;;;;;;;5055169;28;20045;-44
2021/01/31 08:23:12;;;;;;;4.90;1.10;;;;;;;;;;5052664;28;20040;-46
2021/01/31 08:25:56;;;;;;;4.00;0.98;;;;;;;;;;5055229;28;20071;-46
2021/01/31 08:28:30;;;;;;;6.07;1.30;;;;;;;;;;5055385;28;20036;-44
2021/01/31 08:31:03;;;;;;;5.38;1.15;;;;;;;;;;5055270;28;20025;-44
2021/01/31 08:33:37;;;;;;;2.67;0.93;;;;;;;;;;5055161;28;20025;-44
2021/01/31 08:36:04;;;;;;;6.00;1.27;;;;;;;;;;5054956;28;20473;-43
2021/01/31 08:38:34;;;;;;;5.50;1.10;;;;;;;;;;5055153;28;20476;-44
2021/01/31 08:41:01;;;;;;;5.85;1.13;;;;;;;;;;5055122;28;20013;-44
2021/01/31 08:43:36;;;;;;;4.95;1.17;;;;;;;;;;5054814;28;20033;-56
2021/01/31 08:46:16;;;;;;;6.90;0.93;;;;;;;;;;5054888;28;20353;-54
2021/01/31 08:48:49;;;;;;;7.25;1.42;;;;;;;;;;5054772;28;20040;-52
2021/01/31 08:51:19;;;;;;;6.93;1.20;;;;;;;;;;5054840;28;20028;-52
2021/01/31 08:54:02;;;;;;;6.72;1.20;;;;;;;;;;5054594;28;20447;-51
2021/01/31 08:56:28;;;;;;;;;;;;;;;;;;5055100;28;20064;-55
2021/01/31 08:58:56;;;;;;;4.80;0.85;;;;;;;;;;5054644;28;19905;-51
2021/01/31 09:01:24;;;;;;;5.68;1.08;;;;;;;;;;5054627;28;20032;-55
2021/01/31 09:03:51;;;;;;;4.15;0.90;;;;;;;;;;5054584;28;20021;-54
2021/01/31 09:06:18;;;;;;;5.28;1.15;;;;;;;;;;5054197;28;20532;-52
2021/01/31 09:08:47;;;;;;;5.18;1.10;;;;;;;;;;5054528;28;20202;-55
2021/01/31 09:11:16;;;;;;;6.55;1.33;;;;;;;;;;5054468;28;20053;-55
2021/01/31 09:13:43;;;;;;;5.53;0.98;;;;;;;;;;5054325;28;20104;-45
2021/01/31 09:16:30;;;;;;;4.68;1.23;;;;;;;;;;5054295;28;20516;-55
2021/01/31 09:19:06;;;;;;;4.13;1.58;;;;;;;;;;5053900;28;20032;-45
2021/01/31 09:21:34;;;;;;;3.50;0.88;;;;;;;;;;5054411;28;20086;-45
2021/01/31 09:24:02;;;;;;;6.18;1.05;;;;;;;;;;5054185;28;20025;-45
2021/01/31 09:26:29;;;;;;;4.00;0.90;;;;;;;;;;5054037;28;20496;-45
2021/01/31 09:28:57;;;;;;;4.97;1.10;;;;;;;;;;5054087;28;20377;-44
2021/01/31 09:31:25;;;;;;;7.93;1.88;;;;;;;;;;5054033;28;20096;-44
2021/01/31 09:33:58;;;;;;;7.25;1.10;;;;;;;;;;5053991;28;20044;-44
2021/01/31 09:36:35;;;;;;;2.42;0.82;;;;;;;;;;5054015;28;20171;-44
2021/01/31 09:39:05;;;;;;;3.85;0.98;;;;;;;;;;5053907;28;20429;-44
2021/01/31 09:41:33;;;;;;;7.88;1.20;;;;;;;;;;5053972;28;20022;-46
2021/01/31 09:44:02;;;;;;;4.70;1.23;;;;;;;;;;5053714;28;20025;-45
2021/01/31 09:46:30;;;;;;;3.88;1.10;;;;;;;;;;5053569;28;20017;-44
2021/01/31 09:49:00;;;;;;;8.80;1.63;;;;;;;;;;5053570;28;20036;-45
2021/01/31 09:51:27;;;;;;;8.18;1.13;;;;;;;;;;5053551;28;20079;-43
2021/01/31 09:53:54;;;;;;;5.25;1.00;;;;;;;;;;5053287;28;20476;-45
2021/01/31 09:56:33;;;;;;;5.28;0.93;;;;;;;;;;5053690;28;20056;-45
2021/01/31 09:59:01;;;;;;;9.52;1.13;;;;;;;;;;5053646;28;20514;-46
2021/01/31 10:01:29;;;;;;;6.03;1.83;;;;;;;;;;5053223;28;20028;-45
2021/01/31 10:04:01;;;;;;;7.13;1.05;;;;;;;;;;5053047;28;20039;-44
2021/01/31 10:06:32;;;;;;;4.50;1.20;;;;;;;;;;5053330;28;20013;-44
2021/01/31 10:09:01;;;;;;;3.40;0.98;;;;;;;;;;5053154;28;20060;-43
2021/01/31 10:11:29;;;;;;;4.68;1.05;;;;;;;;;;5053264;28;20052;-42
2021/01/31 10:13:57;;;;;;;4.40;1.00;;;;;;;;;;5053174;28;20079;-43
2021/01/31 10:16:34;;;;;;;6.90;1.30;;;;;;;;;;5053216;28;20021;-41
2021/01/31 10:19:09;;;;;;;6.18;1.20;;;;;;;;;;5052710;28;20452;-44
2021/01/31 10:21:38;;;;;;;7.97;1.00;;;;;;;;;;5053129;28;20029;-41
2021/01/31 10:24:17;;;;;;;2.83;1.10;;;;;;;;;;5053031;28;20045;-47
2021/01/31 10:26:45;;;;;;;3.55;0.93;;;;;;;;;;5053103;28;20491;-44
2021/01/31 10:29:20;;;;;;;5.47;1.10;;;;;;;;;;5053054;28;20116;-45
2021/01/31 10:31:47;;;;;;;4.22;1.30;;;;;;;;;;5052952;28;20028;-44
2021/01/31 10:34:34;;;;;;;4.50;1.00;;;;;;;;;;5052844;28;20488;-43
2021/01/31 10:37:13;;;;;;;6.68;0.93;;;;;;;;;;5053151;28;20025;-45
2021/01/31 10:39:40;;;;;;;2.78;0.70;;;;;;;;;;5052764;28;20074;-44
2021/01/31 10:42:07;;;;;;;4.63;1.08;;;;;;;;;;5052851;28;20028;-44
2021/01/31 10:44:34;;;;;;;4.47;1.02;;;;;;;;;;5052735;28;20024;-45
2021/01/31 10:47:01;;;;;;;4.10;0.90;;;;;;;;;;5052730;28;20054;-44
2021/01/31 10:49:28;;;;;;;7.65;1.25;;;;;;;;;;5052874;28;20013;-44
2021/01/31 10:51:55;;;;;;;5.18;1.10;;;;;;;;;;5052668;28;20100;-44
2021/01/31 10:54:23;;;;;;;7.20;1.50;;;;;;;;;;5052543;28;20104;-45
2021/01/31 10:56:50;;;;;;;2.95;1.00;;;;;;;;;;5052601;28;20476;-44
2021/01/31 10:59:17;;;;;;;4.15;1.20;;;;;;;;;;5052428;28;20040;-44
2021/01/31 11:01:45;;;;;;;4.15;1.05;;;;;;;;;;5052517;28;20066;-44
2021/01/31 11:04:12;;;;;;;7.95;1.33;;;;;;;;;;5052704;28;20029;-45
2021/01/31 11:06:40;;;;;;;6.38;1.08;;;;;;;;;;5052470;28;20377;-44
2021/01/31 11:09:08;;;;;;;6.25;1.13;;;;;;;;;;5052456;28;20029;-44
2021/01/31 11:11:35;;;;;;;7.63;1.42;;;;;;;;;;5052536;28;20022;-44
2021/01/31 11:14:02;;;;;;;3.67;0.82;;;;;;;;;;5052684;28;20094;-44
2021/01/31 11:16:29;;;;;;;4.68;1.50;;;;;;;;;;5056632;28;20028;-44
2021/01/31 11:18:56;;;;;;;5.55;1.00;;;;;;;;;;5056426;28;20021;-44
2021/01/31 11:21:24;;;;;;;4.65;1.20;;;;;;;;;;5056412;28;20104;-44
2021/01/31 11:23:53;;;;;;;4.18;1.10;;;;;;;;;;5056511;28;20046;-45
2021/01/31 11:26:20;;;;;;;5.07;1.23;;;;;;;;;;5056333;28;20076;-44
2021/01/31 11:28:47;;;;;;;4.05;1.02;;;;;;;;;;5056478;28;20032;-44
2021/01/31 11:31:14;;;;;;;2.78;0.77;;;;;;;;;;5056167;28;20024;-45
2021/01/31 11:33:41;;;;;;;3.45;0.85;;;;;;;;;;5056210;28;20025;-46
2021/01/31 11:36:08;;;;;;;4.35;1.25;;;;;;;;;;5056762;28;20021;-44
2021/01/31 11:38:35;;;;;;;4.55;1.00;;;;;;;;;;5056127;28;20487;-44
2021/01/31 11:41:02;;;;;;;4.53;1.27;;;;;;;;;;5056012;28;20025;-44
2021/01/31 11:43:29;;;;;;;5.05;1.05;;;;;;;;;;5056223;28;20489;-44
2021/01/31 11:45:56;;;;;;;5.97;1.40;;;;;;;;;;5055933;28;20095;-44
2021/01/31 11:48:24;;;;;;;7.32;1.67;;;;;;;;;;5055860;28;20064;-44
2021/01/31 11:50:50;;;;;;;3.70;0.90;;;;;;;;;;5056017;28;20021;-46
2021/01/31 11:53:18;;;;;;;3.22;0.88;;;;;;;;;;5055854;28;20025;-43
2021/01/31 11:55:46;;;;;;;7.90;1.23;;;;;;;;;;5055729;28;20032;-44
2021/01/31 11:58:13;;;;;;;4.20;1.20;;;;;;;;;;5056019;28;20071;-42
2021/01/31 12:00:40;;;;;;;4.13;1.30;;;;;;;;;;5055729;28;20021;-44
2021/01/31 12:03:08;;;;;;;5.90;1.00;;;;;;;;;;5055676;28;20051;-55
2021/01/31 12:05:35;;;;;;;4.00;1.10;;;;;;;;;;5055855;28;20028;-55
2021/01/31 12:08:02;;;;;;;5.05;1.10;;;;;;;;;;5055593;28;20032;-55
2021/01/31 12:10:31;;;;;;;5.75;1.08;;;;;;;;;;5055402;28;20044;-54
2021/01/31 12:12:59;;;;;;;5.78;1.52;;;;;;;;;;5055633;28;20032;-52
2021/01/31 12:15:26;;;;;;;4.90;0.93;;;;;;;;;;5055461;28;20090;-56
2021/01/31 12:17:53;;;;;;;3.80;1.20;;;;;;;;;;5055346;28;20323;-55
2021/01/31 12:20:20;;;;;;;3.53;1.20;;;;;;;;;;5055228;28;20119;-55
2021/01/31 12:22:47;;;;;;;5.35;1.20;;;;;;;;;;5055242;28;20028;-55
2021/01/31 12:25:15;;;;;;;4.35;1.00;;;;;;;;;;5054680;28;20032;-51
2021/01/31 12:27:47;;;;;;;3.47;0.95;;;;;;;;;;5055191;28;20392;-55
2021/01/31 12:30:14;;;;;;;5.70;1.33;;;;;;;;;;5055289;28;20039;-55
2021/01/31 12:32:41;;;;;;;6.30;1.00;;;;;;;;;;5055074;28;20028;-56
2021/01/31 12:35:08;;;;;;;5.07;1.40;;;;;;;;;;5055064;28;20032;-48
2021/01/31 12:37:35;;;;;;;4.78;1.20;;;;;;;;;;5055137;28;20104;-52
2021/01/31 12:40:03;;;;;;;4.60;1.20;;;;;;;;;;5054909;28;20025;-53
2021/01/31 12:42:30;;;;;;;3.58;1.17;;;;;;;;;;5054824;28;20072;-55
2021/01/31 12:44:57;;;;;;;7.50;1.73;;;;;;;;;;5054848;28;20427;-54
2021/01/31 12:47:24;;;;;;;3.72;1.23;;;;;;;;;;5054838;28;20036;-54
2021/01/31 12:49:51;;;;;;;7.70;1.23;;;;;;;;;;5055063;28;20092;-54
2021/01/31 12:52:19;;;;;;;8.52;1.50;;;;;;;;;;5054756;28;20025;-55
2021/01/31 12:54:47;;;;;;;4.65;1.17;;;;;;;;;;5054773;28;20024;-55
2021/01/31 12:57:14;;;;;;;4.63;1.05;;;;;;;;;;5054816;28;20542;-55
2021/01/31 12:59:41;;;;;;;7.72;1.00;;;;;;;;;;5054560;28;20033;-56
2021/01/31 13:02:08;;;;;;;7.47;1.20;;;;;;;;;;5054588;28;20100;-54
2021/01/31 13:04:35;;;;;;;5.13;1.27;;;;;;;;;;5054507;28;20087;-51
2021/01/31 13:07:02;;;;;;;4.63;1.23;;;;;;;;;;5054402;28;20487;-55
2021/01/31 13:09:32;;;;;;;14.82;2.08;;;;;;;;;;5054370;28;20021;-55
2021/01/31 13:11:59;;;;;;;6.90;1.15;;;;;;;;;;5054340;28;20143;-54
2021/01/31 13:14:27;;;;;;;4.53;1.00;;;;;;;;;;5054438;28;20434;-50
2021/01/31 13:16:55;;;;;;;5.72;1.23;;;;;;;;;;5054228;28;20500;-48
2021/01/31 13:19:22;;;;;;;4.90;1.27;;;;;;;;;;5054079;28;20393;-56
2021/01/31 13:21:52;;;;;;;7.20;1.10;;;;;;;;;;5054790;28;20032;-53
2021/01/31 13:24:20;;;;;;;11.77;1.15;;;;;;;;;;5054309;28;20088;-55
2021/01/31 13:26:47;;;;;;;6.00;1.13;;;;;;;;;;5053860;28;20028;-54
2021/01/31 13:29:14;;;;;;;4.65;1.05;;;;;;;;;;5054085;28;20052;-54
2021/01/31 13:31:41;;;;;;;6.18;1.60;;;;;;;;;;5054047;28;20016;-52
2021/01/31 13:34:09;;;;;;;3.30;1.20;;;;;;;;;;5053865;28;20370;-56
2021/01/31 13:36:36;;;;;;;6.25;1.10;;;;;;;;;;5053228;28;20025;-56
2021/01/31 13:39:05;;;;;;;5.68;1.25;;;;;;;;;;5053755;28;20056;-52
2021/01/31 13:41:32;;;;;;;5.72;1.38;;;;;;;;;;5053874;28;20031;-54
2021/01/31 13:43:59;;;;;;;6.00;1.00;;;;;;;;;;5053744;28;20024;-51
2021/01/31 13:46:26;;;;;;;5.18;1.02;;;;;;;;;;5053746;28;20035;-53
2021/01/31 13:48:53;;;;;;;5.63;1.38;;;;;;;;;;5035747;28;20090;-54
2021/01/31 13:51:20;;;;;;;6.93;1.20;;;;;;;;;;5053679;28;20488;-55
2021/01/31 13:53:47;;;;;;;6.30;1.40;;;;;;;;;;5053748;28;20021;-51
2021/01/31 13:56:14;;;;;;;6.53;1.42;;;;;;;;;;5053613;28;20025;-53
2021/01/31 13:58:41;;;;;;;4.78;1.00;;;;;;;;;;5053548;28;20025;-54
2021/01/31 14:01:08;;;;;;;10.00;1.40;;;;;;;;;;5053584;28;20032;-54
2021/01/31 14:03:35;;;;;;;7.63;1.48;;;;;;;;;;5053327;28;20102;-53
2021/01/31 14:06:02;;;;;;;8.88;1.48;;;;;;;;;;5042876;28;20037;-48
2021/01/31 14:08:29;;;;;;;5.80;1.20;;;;;;;;;;5024852;28;20044;-44
2021/01/31 14:10:56;;;;;;;7.32;1.30;;;;;;;;;;5042503;28;20041;-49
2021/01/31 14:13:23;;;;;;;6.88;1.33;;;;;;;;;;5033092;28;20033;-49
2021/01/31 14:15:50;;;;;;;9.10;1.30;;;;;;;;;;5042586;28;20025;-55
2021/01/31 14:18:17;;;;;;;10.70;1.50;;;;;;;;;;5045628;28;20032;-50
2021/01/31 14:20:44;;;;;;;7.53;1.30;;;;;;;;;;5046741;28;20045;-50
2021/01/31 14:23:11;;;;;;;9.57;1.50;;;;;;;;;;5039722;28;20128;-41
2021/01/31 14:25:38;;;;;;;8.77;1.58;;;;;;;;;;5033379;28;20021;-43
2021/01/31 14:28:05;;;;;;;8.02;1.58;;;;;;;;;;5033579;28;20029;-42
2021/01/31 14:30:32;;;;;;;6.80;1.50;;;;;;;;;;5034064;28;20028;-45
2021/01/31 14:32:59;;;;;;;11.25;1.45;;;;;;;;;;5045136;28;20033;-41
2021/01/31 14:35:29;;;;;;;15.55;1.58;;;;;;;;;;5040852;28;20052;-42
2021/01/31 14:37:56;;;;;;;10.13;1.23;;;;;;;;;;5037821;28;20040;-42
2021/01/31 14:40:24;;;;;;;11.35;1.60;;;;;;;;;;5037144;28;20535;-42
2021/01/31 14:42:51;;;;;;;14.27;2.60;;;;;;;;;;5039330;28;20083;-43
2021/01/31 14:45:20;;;;;;;8.70;2.47;;;;;;;;;;5039074;28;20033;-42
2021/01/31 14:47:47;;;;;;;17.88;2.53;;;;;;;;;;5037856;28;20131;-41
2021/01/31 14:50:15;;;;;;;13.98;2.70;;;;;;;;;;5039323;28;20029;-42
2021/01/31 14:52:42;;;;;;;11.00;2.33;;;;;;;;;;5042317;28;20024;-42
2021/01/31 14:55:12;;;;;;;19.63;2.40;;;;;;;;;;5046625;28;20056;-42
2021/01/31 14:57:40;;;;;;;14.50;4.20;;;;;;;;;;5044487;28;20477;-44
2021/01/31 15:00:08;;;;;;;14.05;2.47;;;;;;;;;;5047084;28;20030;-42